Terminal Aerodrome Forecast
Issued by NWS

Home | Current Version | Previous Version | Text Only | Print | Product List | Glossary On
Versions: 1 2 3 4 5 6 7 8 9 10 11 12 13 14 15 16 17 18 19 20 21
899
FTUS43 KILX 202327 AAA
TAFDEC
TAF AMD
KDEC 202327Z 2023/2124 15006KT P6SM OVC015
     FM210700 19009KT 5SM BR OVC020
     FM211500 18011KT P6SM BKN100=

USA.gov is the U.S. government's official web portal to all federal, state and local government web resources and services.